TimeCST,TemperatureF,Dew PointF,Humidity,Sea Level PressureIn,VisibilityMPH,Wind Direction,Wind SpeedMPH,Gust SpeedMPH,PrecipitationIn,Events,Conditions,WindDirDegrees,DateUTC
12:54 AM,21.0,18.0,88,30.19,10.0,Calm,Calm,-,N/A,,Clear,0,2013-02-17 06:54:00
1:54 AM,21.0,18.0,88,30.19,10.0,ENE,3.5,-,N/A,,Clear,70,2013-02-17 07:54:00
2:54 AM,19.9,17.1,89,30.19,10.0,Calm,Calm,-,N/A,,Mostly Cloudy,0,2013-02-17 08:54:00
3:54 AM,21.0,17.1,85,30.18,10.0,Calm,Calm,-,N/A,,Partly Cloudy,0,2013-02-17 09:54:00
4:54 AM,19.9,17.1,89,30.18,10.0,ENE,5.8,-,N/A,,Clear,60,2013-02-17 10:54:00
5:54 AM,21.0,17.1,85,30.19,10.0,ESE,5.8,-,N/A,,Mostly Cloudy,120,2013-02-17 11:54:00
6:54 AM,21.9,18.0,85,30.20,10.0,East,6.9,-,N/A,,Overcast,90,2013-02-17 12:54:00
7:54 AM,25.0,19.9,81,30.19,10.0,ESE,12.7,-,N/A,,Overcast,110,2013-02-17 13:54:00
8:54 AM,28.0,21.0,75,30.19,10.0,ESE,13.8,-,N/A,,Overcast,110,2013-02-17 14:54:00
9:54 AM,32.0,19.9,61,30.19,10.0,ESE,11.5,-,N/A,,Mostly Cloudy,110,2013-02-17 15:54:00
10:54 AM,37.0,19.0,48,30.18,10.0,SE,13.8,-,N/A,,Scattered Clouds,130,2013-02-17 16:54:00
11:54 AM,39.9,18.0,41,30.15,10.0,SE,13.8,-,N/A,,Mostly Cloudy,140,2013-02-17 17:54:00
12:54 PM,43.0,19.9,40,30.11,10.0,ESE,15.0,-,N/A,,Clear,120,2013-02-17 18:54:00
1:54 PM,44.1,19.9,38,30.08,10.0,SE,12.7,21.9,N/A,,Clear,140,2013-02-17 19:54:00
2:54 PM,46.0,21.0,37,30.05,10.0,SE,15.0,-,N/A,,Clear,130,2013-02-17 20:54:00
3:54 PM,46.0,21.9,39,30.02,10.0,ESE,17.3,-,N/A,,Clear,120,2013-02-17 21:54:00
4:54 PM,45.0,23.0,42,30.00,10.0,SE,16.1,19.6,N/A,,Clear,140,2013-02-17 22:54:00
5:54 PM,42.1,25.0,51,29.99,10.0,SE,12.7,-,N/A,,Clear,130,2013-02-17 23:54:00
6:54 PM,41.0,26.1,55,29.99,10.0,SE,15.0,-,N/A,,Clear,140,2013-02-18 00:54:00
7:54 PM,41.0,30.0,65,29.98,10.0,SE,15.0,-,N/A,,Clear,140,2013-02-18 01:54:00
8:54 PM,39.9,30.0,68,29.97,10.0,SE,13.8,-,N/A,,Clear,140,2013-02-18 02:54:00
9:54 PM,39.9,30.0,68,29.95,10.0,SE,12.7,-,N/A,,Clear,140,2013-02-18 03:54:00
10:54 PM,37.9,30.0,73,29.94,10.0,SE,8.1,-,N/A,,Clear,130,2013-02-18 04:54:00
11:54 PM,37.0,28.9,73,29.92,10.0,ESE,8.1,-,N/A,,Clear,120,2013-02-18 05:54:00